KBGE/BGE METAR and TAF weather

Enter ICAO airport designator
Station Type Date Time Source
KBGE METAR 2020/09/28 07:55 UTC NOAA

KBGE 280755Z AUTO 00000KT 5SM -RA BR OVC005 22/22 A2988 RMK AO2 T02240221


Station Type Date Time Source
KBGE Decoded METAR 2020/09/28 07:55 UTC NOAA

Bainbridge, Decatur County Industrial Air Park Airport, GA, United States (KBGE) 30-58N 084-38W
Sep 28, 2020 - 03:55 AM EDT / 2020.09.28 0755 UTC
Wind: Calm:0
Visibility: 5 mile(s):0
Sky conditions: overcast
Weather: light rain; mist
Temperature: 72.3 F (22.4 C)
Dew Point: 71.8 F (22.1 C)
Relative Humidity: 98%
Pressure (altimeter): 29.88 in. Hg (1011 hPa)
ob: KBGE 280755Z AUTO 00000KT 5SM -RA BR OVC005 22/22 A2988 RMK AO2 T02240221
cycle: 8

Station Type Date Time Source
KBGE TAF UTC NOAA

Error!

Example: see airport list